Time;durP1;ratioP1;P1;durP2;ratioP2;P2;SDS_P1;SDS_P2;PMS_P1;PMS_P2;Temp;Humidity;BMP_temperature;BMP_pressure;BME280_temperature;BME280_humidity;BME280_pressure;Samples;Min_cycle;Max_cycle;Signal;HPM_P1;HPM_P2
2022/12/08 00:01:19;;;;;;;18.27;7.53;;;;;;;-0.38;100.00;99063.34;4207287;28;20232;-66
2022/12/08 00:03:46;;;;;;;15.97;6.57;;;;;;;-0.44;100.00;99073.28;4251007;28;20286;-64
2022/12/08 00:09:28;;;;;;;15.43;6.90;;;;;;;-0.69;100.00;99068.13;4223992;28;25524;-67
2022/12/08 00:12:08;;;;;;;17.40;6.50;;;;;;;-0.72;100.00;99076.19;4220210;28;20232;-67
2022/12/08 00:14:40;;;;;;;13.10;5.07;;;;;;;-0.74;100.00;99075.44;4217879;28;20263;-64
2022/12/08 00:17:08;;;;;;;14.90;5.60;;;;;;;-0.85;100.00;99079.63;4214060;28;22407;-68
2022/12/08 00:19:35;;;;;;;11.33;5.20;;;;;;;-0.82;100.00;99080.34;4209392;28;20236;-65
2022/12/08 00:22:02;;;;;;;14.07;5.87;;;;;;;-0.76;100.00;99093.00;4199324;28;20305;-65
2022/12/08 00:24:31;;;;;;;10.90;4.57;;;;;;;-0.88;100.00;99085.06;4221473;28;20236;-68
2022/12/08 00:26:58;;;;;;;12.70;4.23;;;;;;;-0.87;100.00;99088.50;4220305;28;21204;-67
2022/12/08 00:29:24;;;;;;;14.13;3.83;;;;;;;-0.86;100.00;99096.25;4219705;28;22157;-65
2022/12/08 00:31:51;;;;;;;9.83;3.30;;;;;;;-0.68;100.00;99098.50;4200336;28;20731;-67
2022/12/08 00:34:18;;;;;;;6.73;3.33;;;;;;;-0.72;100.00;99100.50;4204889;28;20346;-66
2022/12/08 00:36:44;;;;;;;8.30;2.80;;;;;;;-0.68;100.00;99104.59;4206129;28;21863;-63
2022/12/08 00:39:12;;;;;;;4.43;2.70;;;;;;;-0.69;100.00;99107.31;4225974;28;20224;-65
2022/12/08 00:44:24;;;;;;;5.80;3.20;;;;;;;-0.68;100.00;99111.56;4219195;28;21901;-65
2022/12/08 00:46:50;;;;;;;9.07;2.60;;;;;;;-0.75;100.00;99112.94;4212367;28;20949;-67
2022/12/08 00:49:17;;;;;;;12.53;3.20;;;;;;;-0.77;100.00;99127.88;4213590;28;20266;-65
2022/12/08 00:51:44;;;;;;;7.77;3.00;;;;;;;-0.74;100.00;99127.69;4199702;28;24234;-66
2022/12/08 00:54:10;;;;;;;7.93;3.23;;;;;;;-0.70;100.00;99123.94;4206161;28;20233;-67
2022/12/08 00:56:37;;;;;;;7.30;3.20;;;;;;;-0.57;100.00;99129.13;4222814;28;20303;-67
2022/12/08 00:59:05;;;;;;;8.73;2.50;;;;;;;-0.55;100.00;99128.06;4260991;28;20425;-65
2022/12/08 01:01:32;;;;;;;7.30;2.40;;;;;;;-0.54;100.00;99127.16;4215251;28;21692;-65
2022/12/08 01:04:04;;;;;;;8.63;2.40;;;;;;;-0.45;100.00;99131.69;4237417;28;20247;-67
2022/12/08 01:06:30;;;;;;;8.60;2.57;;;;;;;-0.51;100.00;99133.94;4209864;28;20246;-66
2022/12/08 01:08:57;;;;;;;7.40;2.83;;;;;;;-0.65;100.00;99137.50;4213656;28;22290;-67
2022/12/08 01:11:23;;;;;;;8.17;2.47;;;;;;;-0.75;100.00;99136.44;4210722;28;21256;-65
2022/12/08 01:13:50;;;;;;;7.53;2.47;;;;;;;-0.79;100.00;99137.63;4206554;28;21419;-63
2022/12/08 01:16:27;;;;;;;9.43;3.30;;;;;;;-0.82;100.00;99137.81;4210301;28;20231;-67
2022/12/08 01:18:56;;;;;;;7.63;2.53;;;;;;;-0.82;100.00;99141.28;4221928;28;22861;-66
2022/12/08 01:21:22;;;;;;;11.07;2.97;;;;;;;-0.80;100.00;99154.22;4221338;28;20421;-69
2022/12/08 01:23:49;;;;;;;7.63;2.30;;;;;;;-0.84;100.00;99143.16;4226238;28;20347;-67
2022/12/08 01:26:17;;;;;;;10.53;2.93;;;;;;;-0.81;100.00;99145.53;4206747;28;21833;-69
2022/12/08 01:28:43;;;;;;;9.63;3.03;;;;;;;-0.80;100.00;99146.38;4219587;28;20732;-67
2022/12/08 01:31:12;;;;;;;8.43;2.60;;;;;;;-0.81;100.00;99142.94;4203957;28;21630;-66
2022/12/08 01:33:39;;;;;;;11.90;3.00;;;;;;;-0.83;100.00;99142.19;4217443;28;20351;-67
2022/12/08 01:36:06;;;;;;;7.00;2.83;;;;;;;-0.91;100.00;99147.94;4197886;28;21783;-67
2022/12/08 01:38:32;;;;;;;6.40;2.70;;;;;;;-0.94;100.00;99148.13;4210330;28;20270;-67
2022/12/08 01:41:00;;;;;;;7.20;2.93;;;;;;;-0.90;100.00;99147.00;4204525;28;21122;-67
2022/12/08 01:43:49;;;;;;;8.17;2.60;;;;;;;-0.88;100.00;99146.91;4235387;28;22431;-68
2022/12/08 01:46:16;;;;;;;11.23;2.40;;;;;;;-0.93;100.00;99142.00;4218272;28;25586;-68
2022/12/08 01:48:43;;;;;;;6.80;2.50;;;;;;;-0.90;100.00;99149.59;4215692;28;20280;-67
2022/12/08 01:51:09;;;;;;;9.37;2.50;;;;;;;-0.95;100.00;99149.09;4201613;28;20313;-65
2022/12/08 01:53:36;;;;;;;10.53;3.00;;;;;;;-1.00;100.00;99156.41;4210599;28;20367;-65
2022/12/08 01:56:06;;;;;;;7.20;3.10;;;;;;;-0.93;100.00;99155.06;4206053;28;20223;-67
2022/12/08 01:58:35;;;;;;;5.83;2.50;;;;;;;-0.96;100.00;99155.28;4195928;28;22475;-65
2022/12/08 02:01:02;;;;;;;9.40;2.80;;;;;;;-0.90;100.00;99162.66;4208214;28;21244;-65
2022/12/08 02:03:40;;;;;;;8.33;2.57;;;;;;;-0.85;100.00;99160.56;4211019;28;21875;-66
2022/12/08 02:06:06;;;;;;;5.90;2.40;;;;;;;-0.74;100.00;99154.63;4207934;28;20231;-67
2022/12/08 02:08:35;;;;;;;5.27;2.50;;;;;;;-0.71;100.00;99158.81;4210463;28;20392;-65
2022/12/08 02:11:01;;;;;;;6.80;2.50;;;;;;;-0.83;100.00;99155.25;4195719;28;20678;-65
2022/12/08 02:13:28;;;;;;;5.87;2.73;;;;;;;-0.94;100.00;99152.53;4203660;28;20250;-65
2022/12/08 02:16:03;;;;;;;5.67;2.53;;;;;;;-0.98;100.00;99157.16;4213943;28;22017;-66
2022/12/08 02:18:53;;;;;;;6.77;2.83;;;;;;;-0.99;100.00;99154.63;4210634;28;21028;-66
2022/12/08 02:21:50;;;;;;;9.93;3.30;;;;;;;-0.99;100.00;99155.44;4212224;28;21211;-65
2022/12/08 02:24:38;;;;;;;10.60;3.73;;;;;;;-0.98;100.00;99151.09;4198853;28;21638;-69
2022/12/08 02:27:16;;;;;;;8.63;3.10;;;;;;;-1.04;100.00;99157.53;4188523;28;20489;-67
2022/12/08 02:30:01;;;;;;;8.83;3.37;;;;;;;-1.05;100.00;99158.50;4212045;28;21222;-65
2022/12/08 02:33:01;;;;;;;8.80;3.30;;;;;;;-1.09;100.00;99150.03;4209582;28;20339;-69
2022/12/08 02:35:49;;;;;;;13.30;3.30;;;;;;;-1.13;100.00;99143.31;4220329;28;20234;-65
2022/12/08 02:38:34;;;;;;;8.63;2.87;;;;;;;-1.04;100.00;99147.09;4200969;28;23517;-65
2022/12/08 02:41:12;;;;;;;12.33;3.37;;;;;;;-1.07;100.00;99157.75;4213892;28;20229;-65
2022/12/08 02:43:46;;;;;;;8.60;3.23;;;;;;;-1.10;100.00;99155.31;4203480;28;20253;-67
2022/12/08 02:46:18;;;;;;;8.53;3.40;;;;;;;-1.07;100.00;99157.75;4220032;28;20412;-67
2022/12/08 02:48:44;;;;;;;9.67;3.43;;;;;;;-1.07;100.00;99158.59;4192524;28;20236;-65
2022/12/08 02:51:11;;;;;;;8.77;3.10;;;;;;;-1.11;100.00;99157.13;4233944;28;20234;-64
2022/12/08 02:53:37;;;;;;;7.33;2.93;;;;;;;-1.11;100.00;99158.91;4212875;28;20422;-65
2022/12/08 02:56:37;;;;;;;11.97;3.83;;;;;;;-1.10;100.00;99161.41;4209394;28;20232;-67
2022/12/08 02:59:43;;;;;;;9.90;3.50;;;;;;;-1.09;100.00;99175.28;4201824;28;20640;-65
2022/12/08 03:02:30;;;;;;;9.70;3.63;;;;;;;-1.13;100.00;99176.44;4216018;28;20277;-66
2022/12/08 03:05:26;;;;;;;10.00;3.60;;;;;;;-1.16;100.00;99167.03;4232642;28;20252;-67
2022/12/08 03:08:01;;;;;;;10.97;3.70;;;;;;;-1.19;100.00;99182.91;4196765;28;20232;-69
2022/12/08 03:10:33;;;;;;;11.57;4.47;;;;;;;-1.25;100.00;99183.28;4220366;28;20644;-66
2022/12/08 03:13:05;;;;;;;12.23;4.33;;;;;;;-1.21;100.00;99189.16;4209977;28;20329;-66
2022/12/08 03:15:34;;;;;;;9.97;3.70;;;;;;;-1.28;100.00;99193.94;4198596;28;20537;-66
2022/12/08 03:18:02;;;;;;;8.73;4.03;;;;;;;-1.32;100.00;99195.06;4195672;28;20298;-68
2022/12/08 03:20:30;;;;;;;10.17;4.10;;;;;;;-1.30;100.00;99194.03;4206246;28;20238;-68
2022/12/08 03:22:58;;;;;;;11.93;4.00;;;;;;;-1.33;100.00;99196.84;4195868;28;20278;-68
2022/12/08 03:25:27;;;;;;;12.63;4.53;;;;;;;-1.35;100.00;99192.69;4206705;28;20301;-67
2022/12/08 03:27:53;;;;;;;10.60;3.73;;;;;;;-1.40;100.00;99195.59;4200016;28;20926;-67
2022/12/08 03:30:20;;;;;;;10.63;4.17;;;;;;;-1.38;100.00;99201.53;4206277;28;20243;-65
2022/12/08 03:32:52;;;;;;;14.50;4.40;;;;;;;-1.34;100.00;99205.59;4196365;28;20957;-65
2022/12/08 03:35:38;;;;;;;10.17;4.30;;;;;;;-1.32;100.00;99198.50;4208039;28;20410;-67
2022/12/08 03:38:07;;;;;;;11.70;4.40;;;;;;;-1.33;100.00;99209.06;4213177;28;20738;-65
2022/12/08 03:40:34;;;;;;;11.53;4.03;;;;;;;-1.39;100.00;99206.84;4197691;28;20240;-64
2022/12/08 03:43:01;;;;;;;10.10;4.20;;;;;;;-1.41;100.00;99200.91;4223459;28;21650;-67
2022/12/08 03:45:28;;;;;;;8.53;4.50;;;;;;;-1.41;100.00;99206.94;4210776;28;21537;-66
2022/12/08 03:47:54;;;;;;;11.33;4.73;;;;;;;-1.43;100.00;99208.81;4201633;28;20229;-66
2022/12/08 03:50:21;;;;;;;10.70;5.27;;;;;;;-1.44;100.00;99209.75;4193876;28;21432;-69
2022/12/08 03:52:47;;;;;;;14.07;5.30;;;;;;;-1.34;100.00;99205.59;4196582;28;20219;-66
2022/12/08 03:55:14;;;;;;;9.57;5.03;;;;;;;-1.42;100.00;99210.50;4204765;28;20255;-68
2022/12/08 03:57:41;;;;;;;14.20;5.50;;;;;;;-1.38;100.00;99209.38;4210012;28;20392;-66
2022/12/08 04:00:13;;;;;;;12.57;5.17;;;;;;;-1.38;100.00;99205.91;4205942;28;20423;-66
2022/12/08 04:02:39;;;;;;;16.40;5.80;;;;;;;-1.35;100.00;99211.78;4194115;28;20235;-65
2022/12/08 04:05:06;;;;;;;17.07;5.80;;;;;;;-1.24;100.00;99218.91;4207313;28;26568;-65
2022/12/08 04:07:34;;;;;;;15.30;5.83;;;;;;;-1.27;100.00;99214.69;4206901;28;20369;-68
2022/12/08 04:10:00;;;;;;;11.23;6.20;;;;;;;-1.22;100.00;99216.19;4207027;28;20236;-67
2022/12/08 04:12:27;;;;;;;15.97;6.67;;;;;;;-1.17;100.00;99228.00;4211977;28;20283;-68
2022/12/08 04:14:54;;;;;;;10.50;5.23;;;;;;;-1.14;100.00;99226.97;4229808;28;20280;-66
2022/12/08 04:17:20;;;;;;;12.83;6.23;;;;;;;-1.10;100.00;99237.13;4207312;28;20409;-65
2022/12/08 04:19:46;;;;;;;14.60;7.10;;;;;;;-1.16;100.00;99234.06;4207162;28;20378;-67
2022/12/08 04:22:13;;;;;;;14.60;6.33;;;;;;;-1.12;100.00;99227.72;4219974;28;20381;-67
2022/12/08 04:24:40;;;;;;;18.13;6.23;;;;;;;-1.13;100.00;99226.84;4210088;28;20228;-65
2022/12/08 04:27:06;;;;;;;17.00;6.87;;;;;;;-1.13;100.00;99226.84;4208797;28;20235;-64
2022/12/08 04:29:32;;;;;;;17.40;6.67;;;;;;;-1.10;100.00;99231.91;4226060;28;20251;-67
2022/12/08 04:31:59;;;;;;;19.23;7.40;;;;;;;-1.16;100.00;99237.50;4208925;28;20288;-66
2022/12/08 04:34:25;;;;;;;16.10;7.03;;;;;;;-1.24;100.00;99229.34;4214444;28;21724;-66
2022/12/08 04:36:52;;;;;;;13.20;6.53;;;;;;;-1.25;100.00;99234.66;4221547;28;20243;-65
2022/12/08 04:39:18;;;;;;;13.30;6.47;;;;;;;-1.28;100.00;99246.97;4227966;28;20247;-65
2022/12/08 04:41:45;;;;;;;15.60;7.43;;;;;;;-1.27;100.00;99246.03;4220488;28;20591;-65
2022/12/08 04:44:11;;;;;;;15.90;7.53;;;;;;;-1.29;100.00;99247.91;4216076;28;20370;-66
2022/12/08 04:46:38;;;;;;;16.90;7.70;;;;;;;-1.30;100.00;99259.28;4222245;28;20307;-68
2022/12/08 04:49:09;;;;;;;16.20;7.70;;;;;;;-1.29;100.00;99247.91;4219894;28;20236;-66
2022/12/08 04:51:35;;;;;;;16.17;7.40;;;;;;;-1.38;100.00;99245.91;4217303;28;20287;-68
2022/12/08 04:54:02;;;;;;;19.80;8.17;;;;;;;-1.33;100.00;99254.25;4222636;28;20224;-64
2022/12/08 04:56:28;;;;;;;18.93;7.73;;;;;;;-1.41;100.00;99250.47;4219360;28;20420;-67
2022/12/08 04:58:55;;;;;;;15.67;7.73;;;;;;;-1.43;100.00;99247.94;4217981;28;26645;-65
2022/12/08 05:01:21;;;;;;;18.43;8.00;;;;;;;-1.38;100.00;99261.56;4214302;28;21335;-65
2022/12/08 05:03:48;;;;;;;19.20;7.40;;;;;;;-1.35;100.00;99253.53;4225525;28;20227;-69
2022/12/08 05:06:14;;;;;;;14.53;7.40;;;;;;;-1.42;100.00;99261.84;4221398;28;29871;-68
2022/12/08 05:08:42;;;;;;;15.10;6.83;;;;;;;-1.44;100.00;99264.56;4233265;28;20391;-66
2022/12/08 05:11:10;;;;;;;17.40;7.43;;;;;;;-1.45;100.00;99268.09;4224798;28;22303;-66
2022/12/08 05:13:37;;;;;;;17.83;7.87;;;;;;;-1.49;100.00;99264.84;4220766;28;21026;-65
2022/12/08 05:16:11;;;;;;;16.27;7.53;;;;;;;-1.45;100.00;99267.25;4213410;28;22123;-65
2022/12/08 05:18:38;;;;;;;12.77;7.10;;;;;;;-1.42;100.00;99274.91;4221529;28;20518;-67
2022/12/08 05:21:05;;;;;;;18.47;7.83;;;;;;;-1.48;100.00;99273.50;4223703;28;21770;-64
2022/12/08 05:23:32;;;;;;;15.93;7.73;;;;;;;-1.42;100.00;99272.28;4193700;28;20227;-66
2022/12/08 05:25:59;;;;;;;18.63;8.27;;;;;;;-1.47;100.00;99269.97;4223430;28;20326;-65
2022/12/08 05:28:26;;;;;;;20.30;8.17;;;;;;;-1.54;100.00;99263.47;4219348;28;20239;-65
2022/12/08 05:31:14;;;;;;;19.13;7.97;;;;;;;-1.66;100.00;99272.03;4203139;28;22378;-66
2022/12/08 05:33:41;;;;;;;18.77;7.57;;;;;;;-1.70;100.00;99264.44;4201520;28;26673;-67
2022/12/08 05:36:09;;;;;;;28.37;8.87;;;;;;;-1.66;100.00;99270.28;4206399;28;20237;-65
2022/12/08 05:38:35;;;;;;;25.17;8.63;;;;;;;-1.62;100.00;99265.72;4208615;28;20656;-67
2022/12/08 05:41:02;;;;;;;17.57;8.47;;;;;;;-1.67;100.00;99265.16;4204628;28;20233;-68
2022/12/08 05:43:29;;;;;;;17.57;8.10;;;;;;;-1.67;100.00;99262.56;4206632;28;21823;-65
2022/12/08 05:45:56;;;;;;;18.70;8.77;;;;;;;-1.59;100.00;99257.69;4206625;28;20244;-67
2022/12/08 05:48:22;;;;;;;18.60;8.67;;;;;;;-1.64;100.00;99257.13;4202196;28;20286;-67
2022/12/08 05:50:49;;;;;;;17.33;8.13;;;;;;;-1.60;100.00;99262.06;4197296;28;22352;-65
2022/12/08 05:53:17;;;;;;;16.60;8.13;;;;;;;-1.55;100.00;99265.22;4193490;28;20620;-64
2022/12/08 05:55:44;;;;;;;17.87;8.13;;;;;;;-1.63;100.00;99277.91;4202848;28;20224;-68
2022/12/08 05:58:13;;;;;;;17.10;8.27;;;;;;;-1.72;100.00;99281.94;4206121;28;20419;-67
2022/12/08 06:00:40;;;;;;;17.70;8.80;;;;;;;-1.74;100.00;99285.56;4210302;28;20236;-68
2022/12/08 06:03:07;;;;;;;18.37;8.57;;;;;;;-1.62;100.00;99303.06;4208626;28;20238;-65
2022/12/08 06:05:34;;;;;;;20.80;8.27;;;;;;;-1.55;100.00;99293.91;4202402;28;21982;-65
2022/12/08 06:08:01;;;;;;;22.50;9.03;;;;;;;-1.49;100.00;99303.16;4202829;28;20229;-66
2022/12/08 06:10:27;;;;;;;20.60;9.50;;;;;;;-1.34;100.00;99302.16;4207490;28;20229;-68
2022/12/08 06:12:54;;;;;;;27.83;9.67;;;;;;;-1.26;100.00;99314.75;4213660;28;20764;-67
2022/12/08 06:15:21;;;;;;;21.40;8.70;;;;;;;-1.14;100.00;99318.34;4237917;28;20377;-68
2022/12/08 06:17:47;;;;;;;20.37;9.17;;;;;;;-1.01;100.00;99329.66;4204343;28;20680;-66
2022/12/08 06:20:14;;;;;;;25.00;9.60;;;;;;;-1.02;100.00;99333.19;4230286;28;20227;-67
2022/12/08 06:22:40;;;;;;;21.27;8.53;;;;;;;-0.97;100.00;99330.28;4230641;28;24062;-66
2022/12/08 06:25:07;;;;;;;22.07;8.80;;;;;;;-1.05;100.00;99328.19;4208083;28;20335;-68
2022/12/08 06:27:35;;;;;;;20.43;8.50;;;;;;;-0.95;100.00;99329.25;4205810;28;20223;-64
2022/12/08 06:30:03;;;;;;;21.40;8.90;;;;;;;-0.91;100.00;99335.97;4242836;28;20282;-67
2022/12/08 06:32:30;;;;;;;23.10;8.77;;;;;;;-0.77;100.00;99329.84;4223759;28;20651;-65
2022/12/08 06:34:56;;;;;;;18.90;8.83;;;;;;;-0.70;100.00;99333.72;4221753;28;20243;-67
2022/12/08 06:37:23;;;;;;;18.87;8.60;;;;;;;-0.65;100.00;99333.44;4250826;28;20229;-65
2022/12/08 06:39:50;;;;;;;18.97;8.27;;;;;;;-0.66;100.00;99329.97;4287332;28;20226;-66
2022/12/08 06:45:02;;;;;;;27.80;9.07;;;;;;;-0.57;100.00;99330.31;4245469;28;20246;-67
2022/12/08 06:47:29;;;;;;;21.17;8.10;;;;;;;-0.58;100.00;99332.09;4226848;28;20227;-65
2022/12/08 06:49:56;;;;;;;23.87;7.90;;;;;;;-0.76;100.00;99335.91;4241316;28;20234;-68
2022/12/08 06:52:22;;;;;;;21.50;8.43;;;;;;;-0.82;100.00;99345.00;4240955;28;21470;-63
2022/12/08 06:54:49;;;;;;;22.83;8.23;;;;;;;-0.87;100.00;99344.41;4254051;28;20297;-65
2022/12/08 06:57:17;;;;;;;15.73;7.37;;;;;;;-0.68;100.00;99346.66;4247281;28;20274;-64
2022/12/08 06:59:43;;;;;;;18.67;8.30;;;;;;;-0.66;100.00;99352.63;4253031;28;25879;-65
2022/12/08 07:02:10;;;;;;;21.10;8.07;;;;;;;-0.72;100.00;99345.22;4238725;28;20360;-66
2022/12/08 07:04:37;;;;;;;21.67;7.77;;;;;;;-0.73;100.00;99352.19;4236398;28;20258;-66
2022/12/08 07:07:03;;;;;;;18.00;8.20;;;;;;;-0.53;100.00;99356.13;4262296;28;20239;-65
2022/12/08 07:09:30;;;;;;;18.57;8.47;;;;;;;-0.51;100.00;99354.25;4263241;28;20374;-67
2022/12/08 07:11:57;;;;;;;23.27;8.83;;;;;;;-0.47;100.00;99350.50;4255469;28;22105;-67
2022/12/08 07:14:24;;;;;;;27.83;9.10;;;;;;;-0.49;100.00;99355.00;4245744;28;20234;-67
2022/12/08 07:16:51;;;;;;;24.93;8.23;;;;;;;-0.44;100.00;99358.13;4264969;28;20231;-69
2022/12/08 07:19:17;;;;;;;25.17;8.33;;;;;;;-0.44;100.00;99354.69;4243615;28;20622;-65
2022/12/08 07:21:44;;;;;;;25.20;8.63;;;;;;;-0.40;100.00;99356.13;4293618;28;20234;-67
2022/12/08 07:24:11;;;;;;;20.70;8.13;;;;;;;-0.34;100.00;99362.75;4360678;28;20724;-69
2022/12/08 07:26:38;;;;;;;22.80;8.60;;;;;;;-0.36;100.00;99373.28;4276384;28;20239;-69
2022/12/08 07:29:05;;;;;;;28.10;9.10;;;;;;;-0.32;100.00;99361.72;4277326;28;20262;-67
2022/12/08 07:31:32;;;;;;;24.33;9.10;;;;;;;-0.26;100.00;99373.50;4270443;28;20394;-65
2022/12/08 07:33:59;;;;;;;24.03;8.83;;;;;;;-0.23;100.00;99373.34;4222508;28;20231;-70
2022/12/08 07:36:26;;;;;;;23.07;9.10;;;;;;;-0.15;100.00;99371.03;4229537;28;20233;-68
2022/12/08 07:38:53;;;;;;;27.20;9.23;;;;;;;-0.09;100.00;99370.63;4209515;28;20296;-68
2022/12/08 07:41:21;;;;;;;25.20;8.87;;;;;;;0.01;100.00;99368.22;4207916;28;20293;-69
2022/12/08 07:43:49;;;;;;;19.23;8.27;;;;;;;0.05;100.00;99374.91;4239832;28;20284;-71
2022/12/08 07:46:19;;;;;;;20.83;9.07;;;;;;;-0.07;100.00;99376.59;4241596;28;20371;-71
2022/12/08 07:48:45;;;;;;;21.70;9.13;;;;;;;-0.22;100.00;99375.81;4213830;28;20239;-69
2022/12/08 07:51:14;;;;;;;20.40;8.37;;;;;;;-0.28;100.00;99384.09;4216381;28;20240;-70
2022/12/08 07:53:42;;;;;;;26.67;9.17;;;;;;;-0.32;100.00;99379.16;4232276;28;20489;-69
2022/12/08 07:56:15;;;;;;;22.93;8.57;;;;;;;-0.21;100.00;99384.53;4202242;28;20235;-71
2022/12/08 07:58:44;;;;;;;22.30;7.27;;;;;;;-0.23;100.00;99384.63;4201803;28;21258;-71
2022/12/08 08:01:19;;;;;;;20.87;8.10;;;;;;;-0.27;100.00;99377.91;4210538;28;20427;-71
2022/12/08 08:03:46;;;;;;;19.53;8.20;;;;;;;-0.15;100.00;99381.47;4216095;28;20232;-68
2022/12/08 08:06:13;;;;;;;21.27;8.50;;;;;;;-0.08;100.00;99387.97;4230991;28;22564;-70
2022/12/08 08:08:40;;;;;;;21.60;7.87;;;;;;;-0.07;100.00;99383.56;4206424;28;21557;-70
2022/12/08 08:11:07;;;;;;;19.03;8.23;;;;;;;-0.06;100.00;99391.31;4206049;28;22053;-68
2022/12/08 08:13:44;;;;;;;25.67;9.37;;;;;;;-0.11;99.95;99382.97;4236207;28;21056;-72
2022/12/08 08:16:12;;;;;;;22.37;8.73;;;;;;;-0.09;99.54;99388.94;4221223;28;20224;-69
2022/12/08 08:18:39;;;;;;;28.23;8.43;;;;;;;-0.02;99.53;99392.81;4226631;28;21456;-69
2022/12/08 08:21:06;;;;;;;17.60;7.67;;;;;;;-0.17;99.97;99388.59;4213319;28;20242;-69
2022/12/08 08:23:53;;;;;;;20.87;8.33;;;;;;;-0.14;99.09;99388.41;4255371;28;20258;-67
2022/12/08 08:26:20;;;;;;;16.63;7.37;;;;;;;0.05;97.92;99393.22;4258884;28;21230;-71
2022/12/08 08:28:47;;;;;;;19.37;8.20;;;;;;;0.08;97.43;99403.47;4265296;28;20235;-68
2022/12/08 08:31:13;;;;;;;17.47;7.70;;;;;;;0.14;97.74;99386.50;4277231;28;22376;-71
2022/12/08 08:33:40;;;;;;;21.80;8.37;;;;;;;0.26;97.13;99401.41;4240524;28;20230;-67
2022/12/08 08:36:08;;;;;;;28.90;8.83;;;;;;;0.35;96.65;99398.16;4249873;28;20812;-70
2022/12/08 08:38:38;;;;;;;23.07;8.40;;;;;;;0.86;95.58;99404.22;4266289;28;20613;-68
2022/12/08 08:41:09;;;;;;;16.40;7.47;;;;;;;2.25;89.50;99412.31;4279834;28;20242;-71
2022/12/08 08:43:36;;;;;;;17.80;7.50;;;;;;;4.10;82.36;99414.19;4254475;28;22990;-71
2022/12/08 08:46:05;;;;;;;18.27;6.97;;;;;;;6.23;69.53;99425.38;4255360;28;20235;-70
2022/12/08 08:48:32;;;;;;;20.40;6.80;;;;;;;8.42;58.74;99437.69;4295913;28;20231;-67
2022/12/08 08:51:07;;;;;;;14.80;6.17;;;;;;;9.30;50.90;99451.56;4225649;28;20235;-69
2022/12/08 08:53:37;;;;;;;18.50;6.57;;;;;;;9.65;48.86;99454.97;4321329;28;20246;-65
2022/12/08 08:56:11;;;;;;;14.67;6.27;;;;;;;9.88;49.55;99462.31;4202558;28;20637;-72
2022/12/08 08:58:39;;;;;;;21.43;6.60;;;;;;;10.23;46.52;99462.97;4238080;28;22330;-72
2022/12/08 09:01:06;;;;;;;16.43;7.40;;;;;;;10.66;46.04;99459.16;4236676;28;20231;-73
2022/12/08 09:03:33;;;;;;;16.13;6.87;;;;;;;11.23;44.38;99463.44;4232149;28;22251;-74
2022/12/08 09:06:00;;;;;;;19.90;8.00;;;;;;;11.28;43.65;99465.59;4254674;28;20244;-65
2022/12/08 09:08:27;;;;;;;19.63;6.70;;;;;;;12.25;39.66;99474.03;4248094;28;20236;-68
2022/12/08 09:10:55;;;;;;;17.50;5.93;;;;;;;11.08;41.27;99462.53;4239484;28;20320;-73
2022/12/08 09:13:22;;;;;;;16.10;6.47;;;;;;;9.34;44.95;99448.59;4236835;28;20513;-72
2022/12/08 09:15:51;;;;;;;13.50;5.87;;;;;;;8.59;47.98;99441.28;4232327;28;20233;-72
2022/12/08 09:18:18;;;;;;;13.83;6.23;;;;;;;7.87;50.82;99438.75;4227707;28;20304;-74
2022/12/08 09:20:44;;;;;;;12.37;6.30;;;;;;;7.22;52.58;99432.81;4256501;28;25409;-74
2022/12/08 09:23:11;;;;;;;10.67;5.43;;;;;;;7.67;52.74;99435.41;4236848;28;20227;-75
2022/12/08 09:25:38;;;;;;;17.57;6.17;;;;;;;8.25;50.30;99434.06;4256087;28;20426;-71
2022/12/08 09:28:04;;;;;;;12.20;5.43;;;;;;;6.42;54.77;99421.88;4294808;28;20534;-71
2022/12/08 09:30:31;;;;;;;17.40;6.27;;;;;;;4.43;64.08;99402.59;4262182;28;21892;-65
2022/12/08 09:32:57;;;;;;;15.17;5.97;;;;;;;4.27;68.87;99407.50;4259208;28;20307;-73
2022/12/08 09:35:24;;;;;;;18.80;6.77;;;;;;;5.72;65.12;99408.84;4288933;28;20230;-77
2022/12/08 09:37:51;;;;;;;16.63;6.23;;;;;;;6.60;59.97;99403.44;4242513;28;20922;-75
2022/12/08 09:40:20;;;;;;;17.27;6.80;;;;;;;7.86;55.77;99421.19;4243711;28;20275;-74
2022/12/08 09:42:50;;;;;;;29.27;6.80;;;;;;;8.68;51.75;99418.28;4261917;28;20285;-73
2022/12/08 09:45:18;;;;;;;14.87;7.40;;;;;;;8.11;53.26;99424.03;4220826;28;20312;-73
2022/12/08 09:48:09;;;;;;;14.93;6.60;;;;;;;8.56;51.33;99418.56;4255805;28;21887;-73
2022/12/08 09:50:40;;;;;;;23.53;7.67;;;;;;;6.75;58.08;99396.69;4248015;28;23492;-75
2022/12/08 09:53:20;;;;;;;20.80;7.47;;;;;;;5.48;63.55;99399.53;4220888;28;20287;-70
2022/12/08 09:55:53;;;;;;;21.27;8.30;;;;;;;4.80;68.26;99383.59;4235976;28;22384;-75
2022/12/08 09:58:34;;;;;;;22.80;8.47;;;;;;;4.04;72.16;99372.56;4250713;28;20334;-76
2022/12/08 10:01:01;;;;;;;25.97;8.30;;;;;;;3.74;75.03;99371.53;4233465;28;20242;-74
2022/12/08 10:03:29;;;;;;;23.37;8.73;;;;;;;3.38;78.51;99370.16;4261772;28;20233;-76
2022/12/08 10:06:08;;;;;;;21.57;9.07;;;;;;;3.10;80.64;99359.25;4242148;28;21035;-76
2022/12/08 10:08:54;;;;;;;26.53;9.60;;;;;;;2.95;82.62;99363.13;4223109;28;20291;-75
2022/12/08 10:12:05;;;;;;;19.63;9.37;;;;;;;2.84;83.47;99360.50;4268698;28;20320;-74
2022/12/08 10:14:56;;;;;;;26.20;10.37;;;;;;;3.97;83.12;99366.16;4256146;28;20238;-77
2022/12/08 10:17:36;;;;;;;21.33;9.23;;;;;;;4.99;75.15;99377.53;4263956;28;20478;-76
2022/12/08 10:20:17;;;;;;;22.37;9.37;;;;;;;4.15;76.67;99363.78;4241268;28;21615;-76
2022/12/08 10:22:45;;;;;;;23.13;9.70;;;;;;;3.45;80.66;99354.72;4256821;28;21044;-77
2022/12/08 10:25:21;;;;;;;24.40;9.70;;;;;;;3.04;82.46;99345.75;4245336;28;20230;-74
2022/12/08 10:27:52;;;;;;;26.57;10.93;;;;;;;2.74;85.61;99339.41;4253851;28;20534;-74
2022/12/08 10:30:20;;;;;;;20.97;10.20;;;;;;;2.59;87.07;99340.59;4232220;28;20252;-73
2022/12/08 10:32:49;;;;;;;23.80;10.17;;;;;;;2.63;87.51;99342.03;4238985;28;20230;-75
2022/12/08 10:35:18;;;;;;;22.50;10.67;;;;;;;2.72;87.86;99342.13;4233824;28;20486;-72
2022/12/08 10:37:55;;;;;;;23.03;10.33;;;;;;;2.66;88.59;99339.97;4237497;28;25302;-72
2022/12/08 10:40:21;;;;;;;32.03;10.73;;;;;;;2.64;89.02;99339.28;4227184;28;20417;-72
2022/12/08 10:42:51;;;;;;;20.00;10.60;;;;;;;2.60;89.21;99335.25;4226453;28;21051;-70
2022/12/08 10:45:23;;;;;;;24.57;12.40;;;;;;;2.57;90.05;99339.88;4237453;28;20228;-76
2022/12/08 10:47:56;;;;;;;26.47;11.57;;;;;;;2.57;90.39;99326.75;4227900;28;20235;-73
2022/12/08 10:50:27;;;;;;;27.50;11.33;;;;;;;2.81;89.99;99329.22;4228111;28;21568;-73
2022/12/08 10:53:15;;;;;;;21.10;10.97;;;;;;;2.53;89.40;99327.00;4235313;28;20237;-70
2022/12/08 10:55:50;;;;;;;24.27;11.87;;;;;;;2.50;89.85;99332.47;4266248;28;20641;-74
2022/12/08 10:58:27;;;;;;;30.07;12.23;;;;;;;2.45;90.83;99331.19;4243507;28;20234;-75
2022/12/08 11:00:56;;;;;;;26.67;10.97;;;;;;;2.46;91.00;99320.56;4258928;28;20554;-73
2022/12/08 11:03:33;;;;;;;25.03;12.17;;;;;;;2.45;91.29;99318.88;4259290;28;20329;-73
2022/12/08 11:06:09;;;;;;;27.90;12.87;;;;;;;2.45;91.73;99324.13;4220327;28;20233;-74
2022/12/08 11:08:46;;;;;;;31.63;12.20;;;;;;;2.23;93.19;99319.75;4230079;28;20232;-74
2022/12/08 11:11:13;;;;;;;22.93;12.30;;;;;;;2.31;92.94;99316.50;4242758;28;21619;-70
2022/12/08 11:13:40;;;;;;;28.40;12.93;;;;;;;2.09;93.96;99312.09;4214342;28;20316;-75
2022/12/08 11:16:07;;;;;;;31.30;13.80;;;;;;;1.98;95.26;99310.28;4219910;28;25376;-77
2022/12/08 11:18:48;;;;;;;32.00;14.03;;;;;;;2.06;95.64;99307.94;4213590;28;20435;-73
2022/12/08 11:21:18;;;;;;;33.33;14.80;;;;;;;2.15;95.20;99305.53;4238851;28;20265;-72
2022/12/08 11:23:49;;;;;;;30.83;14.27;;;;;;;2.14;95.80;99290.75;4236806;28;20233;-73
2022/12/08 11:26:26;;;;;;;31.37;13.27;;;;;;;2.09;96.02;99289.31;4219412;28;20781;-73
2022/12/08 11:28:52;;;;;;;25.30;12.63;;;;;;;2.10;95.94;99296.22;4219128;28;20304;-72
2022/12/08 11:31:32;;;;;;;33.20;13.33;;;;;;;2.04;97.19;99299.34;4208486;28;20457;-70
2022/12/08 11:34:02;;;;;;;26.83;13.83;;;;;;;2.04;97.29;99294.09;4234511;28;21384;-72
2022/12/08 11:36:29;;;;;;;32.10;14.73;;;;;;;1.92;97.88;99289.81;4206859;28;20242;-74
2022/12/08 11:38:59;;;;;;;31.37;14.20;;;;;;;1.97;98.37;99286.81;4217559;28;20366;-71
2022/12/08 11:41:37;;;;;;;27.77;13.93;;;;;;;1.91;98.44;99285.50;4210038;28;22534;-71
2022/12/08 11:44:20;;;;;;;30.97;15.37;;;;;;;1.98;99.09;99285.84;4208873;28;20233;-72